Time;durP1;ratioP1;P1;durP2;ratioP2;P2;SDS_P1;SDS_P2;PMS_P1;PMS_P2;Temp;Humidity;BMP_temperature;BMP_pressure;BME280_temperature;BME280_humidity;BME280_pressure;Samples;Min_cycle;Max_cycle;Signal;HPM_P1;HPM_P2
2022/11/29 00:02:58;;;;;;;36.63;21.65;;;;;;;;;;5010178;28;20426;-77
2022/11/29 00:05:34;;;;;;;34.90;20.80;;;;;;;;;;5012731;28;20025;-76
2022/11/29 00:17:13;;;;;;;;;;;;;;;;;;;;;
2022/11/29 00:23:04;;;;;;;31.25;20.95;;;;;;;;;;5018074;28;20029;-76
2022/11/29 00:39:30;;;;;;;37.90;24.00;;;;;;;;;;5152133;23;20064;-78
2022/11/29 00:51:24;;;;;;;43.13;23.08;;;;;;;;;;4933086;29;20032;-77
2022/11/29 00:54:22;;;;;;;41.33;25.17;;;;;;;;;;4992254;28;20131;-76
2022/11/29 00:57:11;;;;;;;38.97;24.65;;;;;;;;;;4962978;28;20041;-75
2022/11/29 01:00:08;;;;;;;41.15;24.83;;;;;;;;;;4993283;28;20116;-76
2022/11/29 01:02:43;;;;;;;44.53;24.58;;;;;;;;;;4987341;28;20029;-78
2022/11/29 01:05:18;;;;;;;39.42;24.55;;;;;;;;;;4994162;28;20480;-75
2022/11/29 01:08:08;;;;;;;46.65;26.33;;;;;;;;;;4994251;28;20451;-77
2022/11/29 01:11:02;;;;;;;42.75;25.75;;;;;;;;;;4982927;28;20144;-78
2022/11/29 01:13:33;;;;;;;43.33;25.83;;;;;;;;;;4940764;28;20035;-77
2022/11/29 01:16:26;;;;;;;;;;;;;;;;;;;;;
2022/11/29 01:22:12;;;;;;;41.95;26.20;;;;;;;;;;5011649;28;20030;-77
2022/11/29 01:24:41;;;;;;;47.30;26.73;;;;;;;;;;4993305;28;20724;-76
2022/11/29 01:27:15;;;;;;;42.95;26.23;;;;;;;;;;4993580;28;20057;-76
2022/11/29 01:29:46;;;;;;;43.75;27.10;;;;;;;;;;5009668;28;20034;-76
2022/11/29 01:32:22;;;;;;;42.42;26.60;;;;;;;;;;4992955;28;20030;-76
2022/11/29 01:35:01;;;;;;;44.15;26.35;;;;;;;;;;5011135;28;20030;-78
2022/11/29 01:37:28;;;;;;;42.85;27.33;;;;;;;;;;4929885;28;20037;-76
2022/11/29 01:39:59;;;;;;;43.70;27.85;;;;;;;;;;4992778;28;20034;-76
2022/11/29 01:42:40;;;;;;;46.40;27.42;;;;;;;;;;4992810;28;20040;-76
2022/11/29 01:45:44;;;;;;;44.70;26.00;;;;;;;;;;4993584;28;20033;-76
2022/11/29 01:48:35;;;;;;;44.92;26.80;;;;;;;;;;4986110;28;20034;-77
2022/11/29 01:51:04;;;;;;;43.67;26.92;;;;;;;;;;5009426;28;20044;-77
2022/11/29 01:53:44;;;;;;;45.15;28.02;;;;;;;;;;5014474;28;20073;-77
2022/11/29 01:56:30;;;;;;;44.25;27.08;;;;;;;;;;4996461;28;20026;-77
2022/11/29 02:02:17;;;;;;;42.70;25.45;;;;;;;;;;4973219;28;20040;-77
2022/11/29 02:04:55;;;;;;;45.78;27.65;;;;;;;;;;4991525;28;20034;-77
2022/11/29 02:07:34;;;;;;;41.08;25.02;;;;;;;;;;4996301;28;20518;-77
2022/11/29 02:13:11;;;;;;;47.83;28.60;;;;;;;;;;5014399;28;20033;-77
2022/11/29 02:16:15;;;;;;;48.85;27.67;;;;;;;;;;4995707;28;20468;-77
2022/11/29 02:19:08;;;;;;;45.05;26.65;;;;;;;;;;4933792;29;20455;-77
2022/11/29 02:21:52;;;;;;;45.47;26.48;;;;;;;;;;4932509;29;20391;-77
2022/11/29 02:24:41;;;;;;;48.85;27.80;;;;;;;;;;4917399;29;20407;-76
2022/11/29 02:27:46;;;;;;;47.40;28.48;;;;;;;;;;4917478;29;20032;-76
2022/11/29 02:30:40;;;;;;;49.40;30.58;;;;;;;;;;4916838;29;20062;-77
2022/11/29 02:33:25;;;;;;;48.85;29.35;;;;;;;;;;4917966;29;20038;-77
2022/11/29 02:36:17;;;;;;;50.38;30.20;;;;;;;;;;4980959;28;20428;-77
2022/11/29 02:39:05;;;;;;;52.88;30.45;;;;;;;;;;4976750;28;20038;-77
2022/11/29 02:44:55;;;;;;;56.47;31.92;;;;;;;;;;4986770;28;20030;-76
2022/11/29 02:47:41;;;;;;;51.42;30.25;;;;;;;;;;4976648;28;20026;-76
2022/11/29 02:50:16;;;;;;;56.80;32.83;;;;;;;;;;4994424;28;20026;-76
2022/11/29 02:53:06;;;;;;;59.00;33.38;;;;;;;;;;4976278;28;20026;-76
2022/11/29 02:55:58;;;;;;;64.40;35.50;;;;;;;;;;4976561;28;20034;-76
2022/11/29 02:58:33;;;;;;;60.50;34.17;;;;;;;;;;4976609;28;20022;-76
2022/11/29 03:01:18;;;;;;;;;;;;;;;;;;;;;
2022/11/29 03:03:56;;;;;;;61.20;33.22;;;;;;;;;;4993943;28;20492;-78
2022/11/29 03:06:26;;;;;;;64.00;34.30;;;;;;;;;;5010887;23;20046;-76
2022/11/29 03:12:17;;;;;;;63.78;34.85;;;;;;;;;;5008486;28;20034;-77
2022/11/29 03:15:07;;;;;;;69.53;37.10;;;;;;;;;;5013767;28;20026;-76
2022/11/29 03:17:58;;;;;;;66.18;35.40;;;;;;;;;;5012056;28;20114;-77
2022/11/29 03:20:27;;;;;;;73.13;36.83;;;;;;;;;;5031646;23;20065;-77
2022/11/29 03:23:12;;;;;;;67.43;35.33;;;;;;;;;;5012938;28;20071;-77
2022/11/29 03:25:49;;;;;;;73.07;37.92;;;;;;;;;;4993911;28;20070;-77
2022/11/29 03:28:15;;;;;;;70.82;36.38;;;;;;;;;;4992278;28;20027;-76
2022/11/29 03:30:45;;;;;;;74.70;37.15;;;;;;;;;;4993388;28;20038;-76
2022/11/29 03:33:44;;;;;;;74.07;38.63;;;;;;;;;;4992377;28;20100;-76
2022/11/29 03:36:18;;;;;;;75.55;39.10;;;;;;;;;;4971356;28;20034;-77
2022/11/29 03:38:45;;;;;;;74.15;38.05;;;;;;;;;;4992470;28;20493;-77
2022/11/29 03:41:15;;;;;;;73.10;38.45;;;;;;;;;;4993985;28;20030;-79
2022/11/29 03:43:57;;;;;;;75.95;38.13;;;;;;;;;;4993555;28;20499;-77
2022/11/29 03:46:28;;;;;;;72.47;38.13;;;;;;;;;;4992403;28;20124;-77
2022/11/29 03:49:09;;;;;;;71.85;37.03;;;;;;;;;;4993280;28;20493;-77
2022/11/29 03:51:43;;;;;;;73.32;38.75;;;;;;;;;;4993441;28;20463;-76
2022/11/29 03:54:37;;;;;;;77.82;39.22;;;;;;;;;;4993224;28;20022;-77
2022/11/29 03:57:04;;;;;;;84.57;38.33;;;;;;;;;;4977170;28;20034;-74
2022/11/29 03:59:42;;;;;;;79.35;41.22;;;;;;;;;;4991996;28;20485;-77
2022/11/29 04:02:30;;;;;;;76.35;37.65;;;;;;;;;;4991973;28;20018;-77
2022/11/29 04:05:16;;;;;;;73.18;37.45;;;;;;;;;;4992389;28;20026;-77
2022/11/29 04:08:10;;;;;;;75.95;39.42;;;;;;;;;;4991793;28;20454;-77
2022/11/29 04:10:54;;;;;;;67.05;35.63;;;;;;;;;;4976738;28;20089;-77
2022/11/29 04:13:36;;;;;;;69.72;35.65;;;;;;;;;;4993261;28;20034;-77
2022/11/29 04:16:06;;;;;;;66.30;34.78;;;;;;;;;;4991624;28;20069;-77
2022/11/29 04:18:44;;;;;;;71.90;36.60;;;;;;;;;;4999708;23;20027;-80
2022/11/29 04:21:28;;;;;;;68.38;35.10;;;;;;;;;;4974469;28;20516;-77
2022/11/29 04:24:07;;;;;;;66.22;32.75;;;;;;;;;;4975215;28;20026;-76
2022/11/29 04:26:33;;;;;;;70.65;35.97;;;;;;;;;;4975283;28;20418;-76
2022/11/29 04:29:10;;;;;;;71.28;35.70;;;;;;;;;;4971655;28;20027;-76
2022/11/29 04:31:48;;;;;;;74.43;35.63;;;;;;;;;;4957208;28;20485;-76
2022/11/29 04:34:38;;;;;;;68.65;34.83;;;;;;;;;;4955953;28;20444;-76
2022/11/29 04:37:16;;;;;;;62.33;33.33;;;;;;;;;;4955915;28;20092;-76
2022/11/29 04:39:47;;;;;;;68.97;35.72;;;;;;;;;;4955429;28;20015;-78
2022/11/29 04:42:22;;;;;;;67.35;34.92;;;;;;;;;;4969251;28;20054;-75
2022/11/29 04:44:51;;;;;;;70.25;35.97;;;;;;;;;;4957072;28;20393;-76
2022/11/29 04:47:37;;;;;;;65.25;32.53;;;;;;;;;;4975127;28;20497;-75
2022/11/29 04:50:05;;;;;;;60.53;32.95;;;;;;;;;;4990222;28;20023;-77
2022/11/29 04:52:47;;;;;;;64.50;34.28;;;;;;;;;;4978902;28;20023;-79
2022/11/29 04:55:16;;;;;;;72.07;34.33;;;;;;;;;;4978207;28;20019;-74
2022/11/29 04:58:01;;;;;;;66.63;33.95;;;;;;;;;;4994822;28;20023;-78
2022/11/29 05:00:33;;;;;;;62.50;35.25;;;;;;;;;;4991812;28;20393;-77
2022/11/29 05:02:59;;;;;;;62.35;32.05;;;;;;;;;;4955590;28;20026;-75
2022/11/29 05:05:55;;;;;;;60.58;33.25;;;;;;;;;;4973440;28;20105;-75
2022/11/29 05:08:40;;;;;;;59.50;31.75;;;;;;;;;;4946496;28;20023;-80
2022/11/29 05:11:06;;;;;;;59.65;32.58;;;;;;;;;;4953677;28;20014;-76
2022/11/29 05:13:41;;;;;;;57.90;31.95;;;;;;;;;;4954038;28;20497;-75
2022/11/29 05:16:13;;;;;;;54.17;29.52;;;;;;;;;;4954151;28;20023;-73
2022/11/29 05:19:18;;;;;;;63.40;31.65;;;;;;;;;;4970683;28;20405;-79
2022/11/29 05:21:47;;;;;;;59.45;32.40;;;;;;;;;;4911152;29;20036;-77
2022/11/29 05:24:27;;;;;;;60.00;31.92;;;;;;;;;;4911515;29;20398;-76
2022/11/29 05:27:20;;;;;;;56.15;29.15;;;;;;;;;;4949006;28;20097;-76
2022/11/29 05:29:46;;;;;;;51.00;28.88;;;;;;;;;;4973381;28;20026;-75
2022/11/29 05:32:21;;;;;;;49.10;27.88;;;;;;;;;;4976545;28;20046;-75
2022/11/29 05:35:05;;;;;;;47.97;27.95;;;;;;;;;;4976249;28;20038;-75
2022/11/29 05:37:50;;;;;;;48.92;27.88;;;;;;;;;;4958514;28;20033;-75
2022/11/29 05:40:16;;;;;;;51.67;28.63;;;;;;;;;;4958498;28;20023;-77
2022/11/29 05:43:01;;;;;;;46.60;26.20;;;;;;;;;;4976354;28;20033;-77
2022/11/29 05:45:30;;;;;;;47.67;27.77;;;;;;;;;;4976006;28;20019;-77
2022/11/29 05:48:15;;;;;;;48.42;27.73;;;;;;;;;;4957242;28;20034;-76
2022/11/29 05:51:00;;;;;;;47.08;26.88;;;;;;;;;;4971367;28;20441;-76
2022/11/29 05:53:35;;;;;;;52.00;27.67;;;;;;;;;;4958661;28;20019;-76
2022/11/29 05:56:15;;;;;;;42.28;25.05;;;;;;;;;;4958268;28;20034;-78
2022/11/29 05:58:55;;;;;;;39.33;23.35;;;;;;;;;;4958192;28;20034;-75
2022/11/29 06:01:23;;;;;;;46.75;25.55;;;;;;;;;;4959587;28;20026;-78
2022/11/29 06:03:52;;;;;;;41.83;24.27;;;;;;;;;;4977215;28;20441;-76
2022/11/29 06:06:38;;;;;;;41.63;23.27;;;;;;;;;;4959289;28;20038;-75
2022/11/29 06:12:05;;;;;;;41.72;23.70;;;;;;;;;;4973217;28;20023;-75
2022/11/29 06:14:50;;;;;;;42.95;24.42;;;;;;;;;;4959087;28;20379;-77
2022/11/29 06:17:25;;;;;;;41.17;22.50;;;;;;;;;;4976817;28;20026;-75
2022/11/29 06:19:52;;;;;;;39.15;22.25;;;;;;;;;;4976297;28;20042;-76
2022/11/29 06:22:30;;;;;;;44.83;24.88;;;;;;;;;;4959602;28;20035;-76
2022/11/29 06:25:08;;;;;;;39.10;22.50;;;;;;;;;;4959250;28;20111;-76
2022/11/29 06:27:37;;;;;;;41.10;22.60;;;;;;;;;;4959608;28;20094;-75
2022/11/29 06:30:05;;;;;;;40.10;22.40;;;;;;;;;;4977415;28;20027;-76
2022/11/29 06:32:47;;;;;;;41.15;24.65;;;;;;;;;;4960310;28;20023;-76
2022/11/29 06:35:13;;;;;;;37.50;22.08;;;;;;;;;;4977788;28;20047;-79
2022/11/29 06:37:41;;;;;;;38.80;22.50;;;;;;;;;;4960553;28;20027;-76
2022/11/29 06:40:11;;;;;;;38.10;22.40;;;;;;;;;;4960480;28;20031;-77
2022/11/29 06:42:51;;;;;;;40.45;22.75;;;;;;;;;;4959410;28;20035;-78
2022/11/29 06:45:17;;;;;;;40.88;23.00;;;;;;;;;;4959835;28;20031;-78
2022/11/29 06:47:50;;;;;;;39.47;22.15;;;;;;;;;;4959597;28;20022;-76
2022/11/29 06:50:16;;;;;;;44.05;24.40;;;;;;;;;;4959717;28;20030;-76
2022/11/29 06:53:01;;;;;;;40.05;22.13;;;;;;;;;;4959242;28;20023;-77
2022/11/29 06:55:31;;;;;;;40.17;22.48;;;;;;;;;;4957922;28;20030;-76
2022/11/29 06:58:00;;;;;;;41.40;22.13;;;;;;;;;;4957772;28;20030;-76
2022/11/29 07:00:27;;;;;;;39.83;22.83;;;;;;;;;;4975367;28;20030;-75
2022/11/29 07:02:53;;;;;;;42.13;24.23;;;;;;;;;;4957532;28;20085;-78
2022/11/29 07:05:24;;;;;;;44.00;25.02;;;;;;;;;;4957293;28;20050;-79
2022/11/29 07:11:01;;;;;;;43.80;23.20;;;;;;;;;;4955570;28;20062;-78
2022/11/29 07:13:37;;;;;;;40.42;23.30;;;;;;;;;;4957109;28;20078;-76
2022/11/29 07:16:22;;;;;;;44.55;24.17;;;;;;;;;;4974236;28;20539;-76
2022/11/29 07:19:07;;;;;;;40.97;24.30;;;;;;;;;;4956321;28;20474;-79
2022/11/29 07:21:36;;;;;;;42.65;23.10;;;;;;;;;;4956987;28;20482;-76
2022/11/29 07:24:02;;;;;;;41.35;24.92;;;;;;;;;;4973879;28;20034;-76
2022/11/29 07:26:35;;;;;;;43.03;24.25;;;;;;;;;;4956982;28;20552;-76
2022/11/29 07:29:10;;;;;;;42.58;24.92;;;;;;;;;;4954726;28;20030;-75
2022/11/29 07:31:52;;;;;;;44.35;24.80;;;;;;;;;;4973447;28;20027;-80
2022/11/29 07:34:18;;;;;;;;;;;;;;;;;;4949987;28;20026;-74
2022/11/29 07:36:44;;;;;;;41.88;23.88;;;;;;;;;;4975221;28;20436;-76
2022/11/29 07:39:21;;;;;;;40.70;24.33;;;;;;;;;;4957229;28;20045;-76
2022/11/29 07:41:57;;;;;;;40.78;22.50;;;;;;;;;;4956630;28;20493;-76
2022/11/29 07:44:39;;;;;;;42.03;22.35;;;;;;;;;;4974643;28;20034;-77
2022/11/29 07:47:05;;;;;;;;;;;;;;;;;;4956826;28;20440;-75
2022/11/29 07:49:31;;;;;;;43.45;23.08;;;;;;;;;;4971622;28;19913;-75
2022/11/29 07:51:57;;;;;;;42.42;24.70;;;;;;;;;;4973173;28;20035;-74
2022/11/29 07:54:24;;;;;;;42.33;23.13;;;;;;;;;;4955836;28;20081;-70
2022/11/29 07:56:50;;;;;;;36.15;20.33;;;;;;;;;;4973330;28;20023;-72
2022/11/29 07:59:16;;;;;;;39.85;22.13;;;;;;;;;;4972435;28;20093;-73
2022/11/29 08:01:42;;;;;;;39.60;22.77;;;;;;;;;;4972452;28;20031;-71
2022/11/29 08:04:08;;;;;;;35.83;22.20;;;;;;;;;;4973359;28;20019;-73
2022/11/29 08:06:35;;;;;;;39.45;20.77;;;;;;;;;;4973015;28;20031;-71
2022/11/29 08:09:01;;;;;;;34.90;20.80;;;;;;;;;;4972829;28;20038;-73
2022/11/29 08:11:28;;;;;;;36.88;21.73;;;;;;;;;;4956048;28;20062;-72
2022/11/29 08:13:57;;;;;;;35.50;19.75;;;;;;;;;;4973304;28;20023;-72
2022/11/29 08:16:23;;;;;;;34.75;21.77;;;;;;;;;;4955595;28;20069;-72
2022/11/29 08:18:49;;;;;;;36.63;20.48;;;;;;;;;;4955819;28;20038;-73
2022/11/29 08:21:17;;;;;;;33.85;20.10;;;;;;;;;;4955420;28;20062;-72
2022/11/29 08:23:43;;;;;;;32.63;19.05;;;;;;;;;;4973491;28;20485;-73
2022/11/29 08:26:09;;;;;;;35.10;21.52;;;;;;;;;;4973879;28;20035;-72
2022/11/29 08:28:35;;;;;;;33.50;20.42;;;;;;;;;;4956534;28;20026;-73
2022/11/29 08:31:02;;;;;;;31.65;20.10;;;;;;;;;;4975072;28;20050;-73
2022/11/29 08:33:28;;;;;;;31.85;21.05;;;;;;;;;;4976383;28;20023;-70
2022/11/29 08:35:54;;;;;;;31.58;18.38;;;;;;;;;;4959668;28;20029;-69
2022/11/29 08:38:20;;;;;;;30.95;19.17;;;;;;;;;;4976845;28;20030;-72
2022/11/29 08:40:46;;;;;;;28.98;18.20;;;;;;;;;;4977143;28;20477;-72
2022/11/29 08:43:12;;;;;;;30.95;20.25;;;;;;;;;;4976718;28;20023;-72
2022/11/29 08:45:38;;;;;;;27.55;19.48;;;;;;;;;;4976064;28;20049;-73
2022/11/29 08:48:05;;;;;;;30.60;19.67;;;;;;;;;;4975677;28;20117;-72
2022/11/29 08:50:31;;;;;;;27.73;17.98;;;;;;;;;;4974341;28;20023;-72
2022/11/29 08:55:45;;;;;;;28.25;17.67;;;;;;;;;;4973018;28;20077;-73
2022/11/29 08:58:12;;;;;;;27.08;16.80;;;;;;;;;;4971576;28;20026;-72
2022/11/29 09:00:39;;;;;;;29.08;17.88;;;;;;;;;;4973710;28;20045;-75
2022/11/29 09:06:04;;;;;;;32.33;18.58;;;;;;;;;;4977813;28;20166;-76
2022/11/29 09:11:12;;;;;;;32.05;17.88;;;;;;;;;;5013667;28;20057;-77
2022/11/29 09:13:38;;;;;;;29.67;18.23;;;;;;;;;;4982408;28;20029;-75
2022/11/29 09:16:09;;;;;;;30.63;17.48;;;;;;;;;;5016400;28;20017;-78
2022/11/29 09:18:36;;;;;;;27.92;17.65;;;;;;;;;;5016891;28;20160;-78
2022/11/29 09:21:15;;;;;;;29.08;17.40;;;;;;;;;;5010796;28;20026;-77
2022/11/29 09:23:45;;;;;;;29.60;17.52;;;;;;;;;;5000737;28;20030;-77
2022/11/29 09:26:18;;;;;;;30.15;18.98;;;;;;;;;;5017266;28;20030;-77
2022/11/29 09:28:47;;;;;;;27.38;16.27;;;;;;;;;;5016294;28;20072;-76
2022/11/29 09:31:18;;;;;;;27.60;17.92;;;;;;;;;;5016132;28;20159;-80
2022/11/29 09:33:45;;;;;;;26.27;17.10;;;;;;;;;;4998289;28;20400;-77
2022/11/29 09:36:13;;;;;;;25.25;16.30;;;;;;;;;;5016137;28;20060;-76
2022/11/29 09:38:39;;;;;;;26.38;15.90;;;;;;;;;;4998646;28;20558;-78
2022/11/29 09:41:32;;;;;;;28.38;16.85;;;;;;;;;;4998555;28;20060;-78
2022/11/29 09:44:04;;;;;;;25.77;16.88;;;;;;;;;;4969663;28;20042;-79
2022/11/29 09:46:49;;;;;;;26.98;16.92;;;;;;;;;;4997376;28;20057;-77
2022/11/29 09:49:18;;;;;;;26.58;17.33;;;;;;;;;;4999329;28;20041;-77
2022/11/29 09:51:50;;;;;;;26.08;16.25;;;;;;;;;;5016660;28;20057;-77
2022/11/29 09:54:22;;;;;;;23.27;15.20;;;;;;;;;;4999631;28;20037;-78
2022/11/29 09:57:02;;;;;;;26.50;15.20;;;;;;;;;;5017524;28;20037;-76
2022/11/29 09:59:31;;;;;;;26.48;15.30;;;;;;;;;;5016036;28;20109;-79
2022/11/29 10:02:16;;;;;;;25.88;15.95;;;;;;;;;;5015221;28;20022;-77
2022/11/29 10:04:45;;;;;;;25.65;14.95;;;;;;;;;;4997211;28;20068;-76
2022/11/29 10:07:20;;;;;;;21.88;14.43;;;;;;;;;;4997628;28;20044;-77
2022/11/29 10:09:51;;;;;;;24.27;15.73;;;;;;;;;;5014023;28;20403;-79
2022/11/29 10:12:20;;;;;;;;;;;;;;;;;;4996999;28;20050;-76
2022/11/29 10:14:57;;;;;;;24.88;15.40;;;;;;;;;;4996973;28;19905;-78
2022/11/29 10:17:31;;;;;;;22.50;13.85;;;;;;;;;;4997303;28;20072;-77
2022/11/29 10:20:06;;;;;;;22.75;14.77;;;;;;;;;;4997171;28;20407;-77
2022/11/29 10:22:39;;;;;;;23.80;14.63;;;;;;;;;;4998009;28;20030;-77
2022/11/29 10:25:09;;;;;;;23.35;15.32;;;;;;;;;;4997354;28;20452;-76
2022/11/29 10:27:41;;;;;;;21.58;14.13;;;;;;;;;;4995404;28;20029;-78
2022/11/29 10:30:15;;;;;;;23.42;15.07;;;;;;;;;;4996036;28;20029;-77
2022/11/29 10:32:42;;;;;;;23.25;14.45;;;;;;;;;;4996962;28;20030;-76
2022/11/29 10:35:12;;;;;;;25.00;15.18;;;;;;;;;;5013995;28;20026;-76
2022/11/29 10:37:45;;;;;;;23.67;15.35;;;;;;;;;;4999768;28;20522;-75
2022/11/29 10:40:15;;;;;;;23.35;15.25;;;;;;;;;;4995274;28;20030;-77
2022/11/29 10:42:48;;;;;;;25.55;15.07;;;;;;;;;;5001408;28;20514;-76
2022/11/29 10:45:30;;;;;;;26.30;15.32;;;;;;;;;;5010981;28;20538;-76
2022/11/29 10:48:18;;;;;;;24.63;15.13;;;;;;;;;;4996235;28;20026;-76
2022/11/29 10:50:47;;;;;;;24.90;16.45;;;;;;;;;;5014599;28;20045;-78
2022/11/29 10:53:18;;;;;;;25.33;16.25;;;;;;;;;;5016701;28;20106;-77
2022/11/29 10:56:08;;;;;;;25.45;16.98;;;;;;;;;;5017029;28;20053;-78
2022/11/29 10:58:35;;;;;;;23.88;15.55;;;;;;;;;;4999033;28;20054;-78
2022/11/29 11:01:07;;;;;;;24.80;16.90;;;;;;;;;;4999743;28;20037;-78
2022/11/29 11:03:37;;;;;;;27.35;16.20;;;;;;;;;;4999597;28;20038;-78
2022/11/29 11:06:05;;;;;;;28.25;16.25;;;;;;;;;;5014611;28;20388;-77
2022/11/29 11:08:32;;;;;;;28.52;16.83;;;;;;;;;;5013930;28;20022;-78
2022/11/29 11:11:09;;;;;;;25.85;16.90;;;;;;;;;;5014277;28;20099;-81
2022/11/29 11:13:39;;;;;;;27.85;16.83;;;;;;;;;;4999799;28;20488;-81
2022/11/29 11:16:25;;;;;;;28.25;17.23;;;;;;;;;;5019378;28;20044;-80
2022/11/29 11:19:05;;;;;;;25.92;16.88;;;;;;;;;;5018005;28;20025;-81
2022/11/29 11:21:45;;;;;;;28.52;17.20;;;;;;;;;;5000752;28;20115;-81
2022/11/29 11:24:22;;;;;;;27.67;16.77;;;;;;;;;;4997179;28;20408;-79
2022/11/29 11:27:14;;;;;;;28.75;17.58;;;;;;;;;;4998177;28;20026;-79
2022/11/29 11:30:12;;;;;;;26.30;16.58;;;;;;;;;;5010499;28;20029;-80
2022/11/29 11:38:46;;;;;;;26.90;17.52;;;;;;;;;;4935556;29;20030;-75
2022/11/29 11:41:12;;;;;;;29.63;17.15;;;;;;;;;;4933984;29;20028;-74
2022/11/29 11:44:13;;;;;;;;;;;;;;;;;;;;;
2022/11/29 11:53:35;;;;;;;29.80;17.63;;;;;;;;;;4947963;29;20043;-78
2022/11/29 11:56:06;;;;;;;29.20;17.30;;;;;;;;;;4978136;28;20041;-77
2022/11/29 11:58:35;;;;;;;27.50;16.88;;;;;;;;;;5017282;28;20033;-80
2022/11/29 12:01:08;;;;;;;28.20;17.85;;;;;;;;;;5001778;28;20044;-77
2022/11/29 12:03:37;;;;;;;27.10;17.33;;;;;;;;;;5026645;28;20125;-79
2022/11/29 12:06:25;;;;;;;25.48;15.80;;;;;;;;;;5027386;28;20026;-79
2022/11/29 12:09:18;;;;;;;25.40;15.95;;;;;;;;;;5001155;28;20022;-77
2022/11/29 12:11:47;;;;;;;24.70;16.27;;;;;;;;;;4960351;28;20233;-77
2022/11/29 12:14:32;;;;;;;26.17;17.13;;;;;;;;;;5019374;28;20040;-75
2022/11/29 12:17:02;;;;;;;26.70;16.60;;;;;;;;;;5000643;28;20109;-80
2022/11/29 12:19:31;;;;;;;22.38;13.18;;;;;;;;;;5018186;28;20026;-80
2022/11/29 12:22:02;;;;;;;25.77;17.05;;;;;;;;;;5019345;28;20026;-77
2022/11/29 12:24:30;;;;;;;28.92;17.42;;;;;;;;;;5025223;28;20025;-76
2022/11/29 12:27:00;;;;;;;28.65;17.45;;;;;;;;;;4996130;28;20028;-76
2022/11/29 12:29:28;;;;;;;24.83;15.63;;;;;;;;;;5012779;28;20049;-76
2022/11/29 12:32:14;;;;;;;28.35;16.75;;;;;;;;;;5014662;28;20049;-74
2022/11/29 12:34:47;;;;;;;30.40;18.30;;;;;;;;;;5013839;28;20030;-76
2022/11/29 12:37:16;;;;;;;30.75;18.02;;;;;;;;;;5012653;28;20030;-78
2022/11/29 12:39:55;;;;;;;31.67;18.73;;;;;;;;;;5012282;28;20025;-75
2022/11/29 12:42:28;;;;;;;26.65;17.48;;;;;;;;;;4994664;28;20028;-76
2022/11/29 12:45:04;;;;;;;31.38;18.65;;;;;;;;;;5012252;28;20033;-76
2022/11/29 12:47:31;;;;;;;30.75;18.08;;;;;;;;;;5012319;28;20100;-78
2022/11/29 12:50:00;;;;;;;30.00;19.05;;;;;;;;;;5011709;28;20053;-78
2022/11/29 12:52:26;;;;;;;28.67;18.45;;;;;;;;;;5010360;28;20018;-75
2022/11/29 12:54:54;;;;;;;32.33;19.52;;;;;;;;;;5009160;28;20037;-76
2022/11/29 12:57:23;;;;;;;32.90;19.85;;;;;;;;;;5009499;28;20404;-77
2022/11/29 12:59:59;;;;;;;31.63;20.13;;;;;;;;;;5010139;28;20072;-78
2022/11/29 13:02:44;;;;;;;31.48;18.77;;;;;;;;;;5009289;28;20383;-76
2022/11/29 13:05:13;;;;;;;32.67;19.98;;;;;;;;;;5003568;28;20476;-77
2022/11/29 13:07:39;;;;;;;36.25;21.77;;;;;;;;;;5010411;28;20038;-75
2022/11/29 13:10:08;;;;;;;34.30;20.15;;;;;;;;;;5010450;28;20029;-75
2022/11/29 13:12:34;;;;;;;33.83;20.20;;;;;;;;;;5011147;28;20129;-75
2022/11/29 13:15:06;;;;;;;36.67;21.13;;;;;;;;;;5011678;28;20032;-76
2022/11/29 13:17:51;;;;;;;31.13;20.42;;;;;;;;;;5011688;28;20033;-76
2022/11/29 13:20:17;;;;;;;32.55;19.67;;;;;;;;;;4994205;28;20026;-77
2022/11/29 13:22:52;;;;;;;32.67;20.52;;;;;;;;;;5012019;28;20045;-75
2022/11/29 13:25:20;;;;;;;34.03;20.17;;;;;;;;;;5012149;28;20072;-77
2022/11/29 13:27:57;;;;;;;34.47;20.90;;;;;;;;;;4995094;28;20396;-77
2022/11/29 13:30:23;;;;;;;32.38;19.40;;;;;;;;;;5012583;28;20029;-77
2022/11/29 13:32:55;;;;;;;39.67;21.70;;;;;;;;;;4994909;28;20080;-77
2022/11/29 13:35:26;;;;;;;34.97;21.52;;;;;;;;;;5011888;28;20112;-78
2022/11/29 13:37:55;;;;;;;33.22;20.38;;;;;;;;;;5011596;28;20026;-75
2022/11/29 13:40:50;;;;;;;36.08;22.08;;;;;;;;;;4994069;28;20075;-78
2022/11/29 13:43:19;;;;;;;35.05;21.50;;;;;;;;;;4941873;28;20043;-75
2022/11/29 13:45:54;;;;;;;40.25;22.52;;;;;;;;;;5011760;28;20529;-78
2022/11/29 13:48:35;;;;;;;46.22;22.73;;;;;;;;;;4995212;28;20072;-76
2022/11/29 13:51:01;;;;;;;;;;;;;;;;;;5015658;28;20440;-76
2022/11/29 13:53:40;;;;;;;42.63;23.17;;;;;;;;;;5015044;28;19945;-77
2022/11/29 13:56:07;;;;;;;41.83;23.98;;;;;;;;;;5015147;28;20104;-75
2022/11/29 13:58:33;;;;;;;70.05;27.50;;;;;;;;;;4997294;28;20030;-75
2022/11/29 14:01:05;;;;;;;41.72;24.75;;;;;;;;;;5015177;28;20061;-76
2022/11/29 14:03:31;;;;;;;43.90;26.20;;;;;;;;;;5015142;28;20026;-78
2022/11/29 14:06:07;;;;;;;43.70;24.85;;;;;;;;;;5014740;28;20425;-75
2022/11/29 14:08:34;;;;;;;46.60;25.40;;;;;;;;;;4997186;28;20500;-76
2022/11/29 14:11:06;;;;;;;44.53;24.92;;;;;;;;;;4997114;28;20502;-77
2022/11/29 14:13:35;;;;;;;41.78;25.48;;;;;;;;;;5014738;28;20029;-74
2022/11/29 14:16:03;;;;;;;46.78;24.00;;;;;;;;;;4996943;28;20029;-75
2022/11/29 14:18:41;;;;;;;49.40;26.55;;;;;;;;;;5014038;28;20038;-76
2022/11/29 14:21:07;;;;;;;42.53;24.95;;;;;;;;;;5014285;28;20168;-75
2022/11/29 14:23:39;;;;;;;46.72;24.85;;;;;;;;;;5014347;28;20045;-75
2022/11/29 14:26:05;;;;;;;44.97;26.55;;;;;;;;;;5014522;28;20029;-77
2022/11/29 14:28:31;;;;;;;47.35;28.30;;;;;;;;;;4996583;28;20026;-76
2022/11/29 14:31:07;;;;;;;43.00;26.10;;;;;;;;;;5014864;28;20014;-77
2022/11/29 14:33:51;;;;;;;44.47;24.70;;;;;;;;;;5014748;28;20022;-75
2022/11/29 14:36:30;;;;;;;44.58;26.75;;;;;;;;;;5014765;28;20025;-77
2022/11/29 14:39:26;;;;;;;45.35;25.80;;;;;;;;;;4996329;28;20080;-78
2022/11/29 14:42:13;;;;;;;44.58;24.20;;;;;;;;;;4979497;28;20034;-75
2022/11/29 14:44:45;;;;;;;39.38;23.48;;;;;;;;;;5014260;28;20103;-79
2022/11/29 14:47:31;;;;;;;43.95;25.10;;;;;;;;;;4996341;28;20068;-77
2022/11/29 14:49:58;;;;;;;44.33;25.50;;;;;;;;;;5012068;28;20108;-76
2022/11/29 14:52:32;;;;;;;53.78;26.80;;;;;;;;;;4996782;28;20092;-77
2022/11/29 14:55:16;;;;;;;42.05;24.17;;;;;;;;;;4996708;28;20030;-77
2022/11/29 14:58:02;;;;;;;43.95;24.88;;;;;;;;;;4996939;28;20022;-77
2022/11/29 15:00:35;;;;;;;38.45;23.70;;;;;;;;;;4976827;28;20034;-77
2022/11/29 15:03:18;;;;;;;38.58;22.05;;;;;;;;;;4995366;28;20023;-76
2022/11/29 15:05:47;;;;;;;36.22;21.40;;;;;;;;;;4994533;28;20146;-76
2022/11/29 15:08:13;;;;;;;36.70;21.85;;;;;;;;;;4976643;28;20025;-77
2022/11/29 15:10:41;;;;;;;36.95;22.00;;;;;;;;;;4993923;28;20038;-75
2022/11/29 15:13:10;;;;;;;36.95;21.52;;;;;;;;;;4993955;28;20030;-75
2022/11/29 15:15:45;;;;;;;34.90;20.65;;;;;;;;;;4994365;28;20045;-76
2022/11/29 15:18:22;;;;;;;46.53;22.50;;;;;;;;;;4993533;28;20031;-76
2022/11/29 15:21:06;;;;;;;35.80;21.33;;;;;;;;;;4993701;28;20277;-76
2022/11/29 15:23:40;;;;;;;36.38;22.75;;;;;;;;;;4995089;28;20026;-76
2022/11/29 15:26:15;;;;;;;38.28;22.63;;;;;;;;;;4975902;28;20096;-77
2022/11/29 15:28:42;;;;;;;42.38;22.63;;;;;;;;;;4993810;28;20022;-74
2022/11/29 15:31:09;;;;;;;38.17;23.48;;;;;;;;;;4993629;28;20033;-75
2022/11/29 15:33:36;;;;;;;36.80;21.65;;;;;;;;;;4993409;28;20527;-75
2022/11/29 15:36:10;;;;;;;37.90;21.95;;;;;;;;;;4993776;28;20416;-75
2022/11/29 15:38:49;;;;;;;47.63;25.05;;;;;;;;;;4993140;28;20022;-76
2022/11/29 15:41:34;;;;;;;39.88;22.13;;;;;;;;;;4993324;28;20400;-76
2022/11/29 15:44:01;;;;;;;43.30;24.75;;;;;;;;;;4976349;28;20026;-76
2022/11/29 15:46:28;;;;;;;44.72;24.65;;;;;;;;;;4993426;28;20037;-76
2022/11/29 15:48:55;;;;;;;42.60;24.42;;;;;;;;;;4993207;28;20034;-76
2022/11/29 15:51:21;;;;;;;45.58;26.15;;;;;;;;;;4976370;28;20018;-76
2022/11/29 15:53:50;;;;;;;44.17;25.17;;;;;;;;;;4976622;28;20034;-76
2022/11/29 15:56:19;;;;;;;44.38;24.92;;;;;;;;;;4994433;28;20018;-77
2022/11/29 15:58:47;;;;;;;47.42;25.45;;;;;;;;;;4993631;28;20080;-76
2022/11/29 16:01:18;;;;;;;45.65;27.08;;;;;;;;;;4993674;28;20034;-77
2022/11/29 16:03:47;;;;;;;51.53;26.67;;;;;;;;;;4994292;28;20127;-78
2022/11/29 16:06:33;;;;;;;53.42;28.58;;;;;;;;;;4993437;28;20027;-77
2022/11/29 16:09:02;;;;;;;44.58;24.48;;;;;;;;;;4993027;28;20030;-77
2022/11/29 16:11:33;;;;;;;50.85;26.42;;;;;;;;;;4975060;28;20117;-75
2022/11/29 16:14:03;;;;;;;44.78;24.80;;;;;;;;;;4975690;28;20141;-76
2022/11/29 16:16:34;;;;;;;48.78;26.30;;;;;;;;;;4975379;28;20038;-78
2022/11/29 16:19:09;;;;;;;48.25;26.52;;;;;;;;;;4975098;28;20034;-77
2022/11/29 16:21:35;;;;;;;48.40;24.90;;;;;;;;;;4974962;28;20033;-77
2022/11/29 16:24:19;;;;;;;51.97;28.35;;;;;;;;;;4975486;28;20037;-78
2022/11/29 16:26:46;;;;;;;48.25;26.65;;;;;;;;;;4976563;28;20045;-77
2022/11/29 16:29:36;;;;;;;52.83;28.00;;;;;;;;;;4992686;28;20029;-78